TFM - Tactical Decision Aid
ID: Runway Winds: CIG/VIS Threshold:

KCDR - Chadron Muni, NE, US

Updated at: 1512 UTC 27 Nov 2021
Latest TAF at: 1147 UTC 27 Nov 2021

TAF Board

Time1453Z 27/16Z 27/17Z 27/18Z 27/19Z 27/20Z 27/21Z 27/22Z 27/23Z 28/00Z 28/01Z 28/02Z 28/03Z 28/04Z>>
Type OBS PRVL PRVL PRVL PRVL PRVL PRVL PRVL PRVL PRVL PRVL PRVL PRVL PRVL
VIS 10 >6 >6 >6 >6 >6 >6 >6 >6 >6 >6 >6 >6 >6
CIG -- 100 250 250 250 250 250 250 250 250 250 250 -- --
Cover CLR BKN BKN BKN BKN BKN BKN BKN BKN BKN BKN BKN SCT SCT
FltCat VFR VFR VFR VFR VFR VFR VFR VFR VFR VFR VFR VFR VFR VFR
WX -- -- -- -- -- -- -- -- -- -- -- -- -- --
WDir 310 300 320 320 320 320 320 350 350 350 350 350 240 240
WSpd 13 15 16 16 16 16 16 9 9 9 9 9 6 6
WGst 19 -- 24 24 24 24 24 -- -- -- -- -- -- --
WSHgt -- -- -- -- -- -- -- -- -- -- -- -- -- --
WSDir -- -- -- -- -- -- -- -- -- -- -- -- -- --
WSSpd -- -- -- -- -- -- -- -- -- -- -- -- -- --

TDA Impact Legend

  None Marginal Slight Moderate High
Visibility (sm) >5 3≤X≤5 2≤X<3 0.5≤X<2 <0.5
Ceiling (100 ft) >30 10≤X≤30 7≤X<10 2≤X<7 <2
Wind Speed (kt) <15 15≤X<25 25≤X<30 ≥30
Wind Gust (kt) <15 15≤X<25 25≤X<35 ≥35
Weather No Wx Reported VCTS -TS,-FZRA TS,FZRA +TS,+FZRA
TAF
KCDR 271147Z 2712/2812 30015KT P6SM BKN100
  FM271700 32016G24KT P6SM BKN250
  FM272200 35009KT P6SM BKN250
  FM280300 24006KT P6SM SCT250


METAR
KCDR 271453Z AUTO 31013G19KT 10SM CLR 05/M03 A3017 RMK AO2 SLP237 T00501028 53028
KCDR 271353Z AUTO 00000KT 10SM CLR 01/M05 A3014 RMK AO2 SLP234 T00111050
KCDR 271253Z AUTO 27014KT 10SM CLR 03/M04 A3010 RMK AO2 SLP215 T00331039
KCDR 271153Z AUTO 27014KT 10SM CLR 04/M04 A3008 RMK AO2 SLP203 T00441044 10083 20022 51024

Radar Display
Forecast Discussion